createdAt,value
2023-03-15T00:00:32.638Z,2.63
2023-03-15T00:02:59.772Z,3.05
2023-03-15T00:05:26.923Z,2.97
2023-03-15T00:07:54.027Z,2.53
2023-03-15T00:10:21.103Z,2.47
2023-03-15T00:12:48.193Z,2.60
2023-03-15T00:15:15.855Z,2.88
2023-03-15T00:17:44.975Z,2.55
2023-03-15T00:20:14.757Z,3.13
2023-03-15T00:22:42.579Z,3.15
2023-03-15T00:25:09.928Z,2.53
2023-03-15T00:27:37.074Z,3.00
2023-03-15T00:30:04.594Z,2.70
2023-03-15T00:32:31.859Z,2.85
2023-03-15T00:34:59.123Z,2.70
2023-03-15T00:37:26.422Z,3.20
2023-03-15T00:39:55.702Z,3.10
2023-03-15T00:42:27.771Z,3.25
2023-03-15T00:44:57.998Z,3.33
2023-03-15T00:47:25.146Z,2.90
2023-03-15T00:49:53.227Z,3.15
2023-03-15T00:52:22.036Z,3.10
2023-03-15T00:54:55.976Z,3.30
2023-03-15T00:57:23.275Z,2.72
2023-03-15T00:59:53.127Z,3.40
2023-03-15T01:02:23.149Z,3.42
2023-03-15T01:04:51.359Z,3.60
2023-03-15T01:07:18.645Z,3.35
2023-03-15T01:09:48.356Z,3.63
2023-03-15T01:12:15.626Z,3.60
2023-03-15T01:14:42.784Z,3.47
2023-03-15T01:17:09.931Z,3.58
2023-03-15T01:19:37.014Z,3.42
2023-03-15T01:22:04.112Z,3.67
2023-03-15T01:24:31.363Z,4.13
2023-03-15T01:26:58.454Z,4.00
2023-03-15T01:29:25.617Z,4.20
2023-03-15T01:31:52.838Z,3.78
2023-03-15T01:34:21.568Z,4.50
2023-03-15T01:36:52.393Z,3.97
2023-03-15T01:39:19.475Z,4.57
2023-03-15T01:41:46.573Z,4.60
2023-03-15T01:44:17.786Z,4.25
2023-03-15T01:46:45.111Z,4.78
2023-03-15T01:49:22.820Z,4.35
2023-03-15T01:51:49.928Z,4.45
2023-03-15T01:54:35.539Z,4.78
2023-03-15T01:57:08.152Z,5.18
2023-03-15T01:59:37.260Z,4.22
2023-03-15T02:02:05.218Z,4.57
2023-03-15T02:04:37.124Z,4.90
2023-03-15T02:07:05.211Z,5.10
2023-03-15T02:09:41.876Z,4.57
2023-03-15T02:12:09.771Z,5.07
2023-03-15T02:14:37.148Z,4.57
2023-03-15T02:17:04.412Z,4.95
2023-03-15T02:19:31.559Z,5.18
2023-03-15T02:22:15.628Z,4.03
2023-03-15T02:24:48.739Z,4.82
2023-03-15T02:27:15.979Z,5.18
2023-03-15T02:29:43.227Z,5.10
2023-03-15T02:32:10.569Z,4.97
2023-03-15T02:34:37.702Z,5.28
2023-03-15T02:37:04.962Z,4.95
2023-03-15T02:39:32.076Z,5.28
2023-03-15T02:41:59.736Z,5.47
2023-03-15T02:44:34.397Z,4.70
2023-03-15T02:47:06.610Z,5.10
2023-03-15T02:49:36.024Z,5.45
2023-03-15T02:52:03.100Z,5.10
2023-03-15T02:54:30.200Z,5.13
2023-03-15T02:56:57.366Z,5.57
2023-03-15T02:59:24.538Z,5.35
2023-03-15T03:01:51.621Z,5.57
2023-03-15T03:04:18.956Z,5.78
2023-03-15T03:06:46.056Z,5.43
2023-03-15T03:09:13.393Z,6.00
2023-03-15T03:11:40.548Z,5.32
2023-03-15T03:14:07.630Z,5.70
2023-03-15T03:16:34.719Z,5.85
2023-03-15T03:19:01.996Z,5.32
2023-03-15T03:21:29.085Z,5.55
2023-03-15T03:23:56.162Z,6.05
2023-03-15T03:26:27.893Z,5.90
2023-03-15T03:28:56.229Z,5.95
2023-03-15T03:31:25.083Z,5.80
2023-03-15T03:33:52.747Z,5.85
2023-03-15T03:36:20.111Z,6.15
2023-03-15T03:38:48.055Z,7.68
2023-03-15T03:41:15.588Z,8.02
2023-03-15T03:43:42.988Z,7.60
2023-03-15T03:46:10.412Z,7.28
2023-03-15T03:48:37.648Z,7.85
2023-03-15T03:51:04.944Z,8.05
2023-03-15T03:53:32.194Z,7.95
2023-03-15T03:55:59.434Z,7.70
2023-03-15T03:58:26.519Z,7.25
2023-03-15T04:00:56.806Z,7.00
2023-03-15T04:03:29.799Z,7.85
2023-03-15T04:05:57.782Z,7.68
2023-03-15T04:08:25.543Z,6.57
2023-03-15T04:10:56.822Z,7.63
2023-03-15T04:13:24.795Z,7.65
2023-03-15T04:15:52.415Z,6.75
2023-03-15T04:18:19.596Z,6.93
2023-03-15T04:20:48.128Z,7.28
2023-03-15T04:23:15.926Z,6.55
2023-03-15T04:25:43.286Z,6.95
2023-03-15T04:28:13.362Z,6.68
2023-03-15T04:30:42.684Z,7.28
2023-03-15T04:33:10.024Z,7.63
2023-03-15T04:35:39.063Z,8.13
2023-03-15T04:38:06.807Z,6.90
2023-03-15T04:40:37.487Z,8.20
2023-03-15T04:43:05.854Z,8.38
2023-03-15T04:45:33.099Z,7.72
2023-03-15T04:48:01.557Z,6.90
2023-03-15T04:50:29.643Z,8.32
2023-03-15T04:52:58.685Z,7.22
2023-03-15T04:55:25.895Z,7.90
2023-03-15T04:57:53.116Z,7.97
2023-03-15T05:00:21.678Z,8.32
2023-03-15T05:02:54.940Z,7.97
2023-03-15T05:05:26.455Z,7.88
2023-03-15T05:10:20.661Z,7.65
2023-03-15T05:12:47.723Z,7.28
2023-03-15T05:15:14.849Z,7.50
2023-03-15T05:17:42.012Z,7.60
2023-03-15T05:20:12.731Z,7.88
2023-03-15T05:22:40.894Z,7.70
2023-03-15T05:25:08.796Z,7.35
2023-03-15T05:27:35.862Z,6.65
2023-03-15T05:30:04.054Z,7.68
2023-03-15T05:32:34.813Z,7.00
2023-03-15T05:35:02.380Z,7.25
2023-03-15T05:37:30.065Z,7.05
2023-03-15T05:39:57.231Z,8.05
2023-03-15T05:42:27.322Z,7.00
2023-03-15T05:44:54.548Z,8.13
2023-03-15T05:47:22.097Z,7.35
2023-03-15T05:49:49.336Z,6.63
2023-03-15T05:52:16.625Z,6.90
2023-03-15T05:54:43.787Z,8.05
2023-03-15T05:57:11.562Z,7.15
2023-03-15T05:59:38.695Z,6.63
2023-03-15T06:02:06.015Z,7.15
2023-03-15T06:04:33.252Z,7.10
2023-03-15T06:07:00.441Z,7.35
2023-03-15T06:09:27.605Z,7.55
2023-03-15T06:11:54.937Z,8.00
2023-03-15T06:14:22.101Z,7.35
2023-03-15T06:16:49.460Z,7.32
2023-03-15T06:19:16.576Z,8.18
2023-03-15T06:21:43.960Z,7.63
2023-03-15T06:24:11.140Z,7.57
2023-03-15T06:26:38.357Z,7.65
2023-03-15T06:29:05.475Z,7.95
2023-03-15T06:31:32.680Z,7.55
2023-03-15T06:33:59.763Z,6.95
2023-03-15T06:36:26.900Z,7.50
2023-03-15T06:38:54.575Z,7.90
2023-03-15T06:41:21.706Z,8.07
2023-03-15T06:43:48.784Z,7.53
2023-03-15T06:46:16.149Z,7.90
2023-03-15T06:48:43.252Z,7.53
2023-03-15T06:51:10.397Z,7.40
2023-03-15T06:53:37.645Z,7.85
2023-03-15T06:56:04.864Z,7.78
2023-03-15T06:58:31.942Z,9.48
2023-03-15T07:00:59.174Z,9.07
2023-03-15T07:03:26.479Z,8.65
2023-03-15T07:05:54.649Z,9.10
2023-03-15T07:08:22.760Z,8.65
2023-03-15T07:10:50.404Z,9.05
2023-03-15T07:13:17.638Z,8.15
2023-03-15T07:15:45.047Z,8.77
2023-03-15T07:18:12.142Z,8.57
2023-03-15T07:20:39.289Z,8.88
2023-03-15T07:23:06.490Z,7.78
2023-03-15T07:25:44.965Z,8.05
2023-03-15T07:28:19.482Z,8.07
2023-03-15T07:30:57.270Z,8.82
2023-03-15T07:33:25.080Z,8.10
2023-03-15T07:35:53.540Z,8.95
2023-03-15T07:38:21.458Z,8.98
2023-03-15T07:40:48.682Z,8.43
2023-03-15T07:43:15.994Z,8.05
2023-03-15T07:45:43.445Z,7.93
2023-03-15T07:48:11.304Z,8.45
2023-03-15T07:50:38.673Z,8.13
2023-03-15T07:53:06.534Z,8.75
2023-03-15T07:55:34.293Z,8.77
2023-03-15T07:58:01.891Z,9.13
2023-03-15T08:00:29.580Z,8.95
2023-03-15T08:02:56.854Z,9.27
2023-03-15T08:05:24.839Z,9.05
2023-03-15T08:07:52.510Z,8.13
2023-03-15T08:10:19.754Z,8.07
2023-03-15T08:12:46.859Z,8.70
2023-03-15T08:15:14.972Z,8.88
2023-03-15T08:17:44.428Z,8.23
2023-03-15T08:20:14.275Z,7.63
2023-03-15T08:22:44.682Z,7.03
2023-03-15T08:25:12.678Z,8.15
2023-03-15T08:27:40.321Z,7.47
2023-03-15T08:30:07.764Z,7.88
2023-03-15T08:32:35.016Z,7.85
2023-03-15T08:35:02.188Z,7.40
2023-03-15T08:37:29.288Z,7.55
2023-03-15T08:40:05.257Z,7.55
2023-03-15T08:42:32.368Z,8.10
2023-03-15T08:45:01.924Z,7.38
2023-03-15T08:47:29.248Z,8.50
2023-03-15T08:49:56.327Z,7.72
2023-03-15T08:52:23.432Z,8.32
2023-03-15T08:54:50.680Z,7.95
2023-03-15T08:57:17.774Z,7.88
2023-03-15T08:59:45.600Z,6.47
2023-03-15T09:02:13.355Z,7.10
2023-03-15T09:04:40.632Z,7.55
2023-03-15T09:07:07.763Z,7.97
2023-03-15T09:09:35.246Z,7.50
2023-03-15T09:12:02.336Z,7.78
2023-03-15T09:14:29.471Z,7.18
2023-03-15T09:16:56.703Z,8.73
2023-03-15T09:19:23.892Z,9.27
2023-03-15T09:21:51.327Z,9.07
2023-03-15T09:24:18.488Z,9.43
2023-03-15T09:26:45.667Z,9.40
2023-03-15T09:29:12.782Z,9.60
2023-03-15T09:31:40.084Z,9.55
2023-03-15T09:34:07.227Z,8.50
2023-03-15T09:36:34.549Z,9.40
2023-03-15T09:39:01.799Z,10.98
2023-03-15T09:41:45.581Z,8.80
2023-03-15T09:44:26.041Z,9.60
2023-03-15T09:47:01.986Z,8.77
2023-03-15T09:49:34.085Z,9.18
2023-03-15T09:52:09.342Z,8.88
2023-03-15T09:54:49.236Z,8.73
2023-03-15T09:57:19.472Z,8.13
2023-03-15T09:59:47.990Z,9.63
2023-03-15T10:02:26.174Z,9.02
2023-03-15T10:04:56.585Z,9.55
2023-03-15T10:07:23.688Z,10.32
2023-03-15T10:09:51.064Z,9.52
2023-03-15T10:12:27.044Z,10.18
2023-03-15T10:14:59.421Z,9.77
2023-03-15T10:17:31.858Z,9.50
2023-03-15T10:20:18.976Z,8.65
2023-03-15T10:22:58.854Z,9.00
2023-03-15T10:25:29.740Z,10.00
2023-03-15T10:27:59.969Z,9.70
2023-03-15T10:30:32.005Z,9.18
2023-03-15T10:33:14.341Z,9.18
2023-03-15T10:35:43.010Z,10.23
2023-03-15T10:38:20.809Z,8.95
2023-03-15T10:40:49.547Z,9.90
2023-03-15T10:43:19.503Z,9.02
2023-03-15T10:46:04.613Z,9.68
2023-03-15T10:48:32.991Z,8.65
2023-03-15T10:51:16.848Z,9.05
2023-03-15T10:54:02.754Z,8.75
2023-03-15T10:56:32.109Z,8.38
2023-03-15T10:59:12.367Z,8.82
2023-03-15T11:01:40.306Z,9.68
2023-03-15T11:04:13.907Z,8.85
2023-03-15T11:06:46.319Z,8.95
2023-03-15T11:09:15.046Z,9.05
2023-03-15T11:12:02.363Z,9.10
2023-03-15T11:14:35.639Z,7.20
2023-03-15T11:17:04.016Z,7.25
2023-03-15T11:19:32.471Z,9.07
2023-03-15T11:22:01.726Z,7.40
2023-03-15T11:24:30.388Z,7.78
2023-03-15T11:27:02.108Z,7.63
2023-03-15T11:29:29.173Z,7.13
2023-03-15T11:31:56.984Z,7.13
2023-03-15T11:34:38.981Z,8.95
2023-03-15T11:37:13.173Z,7.97
2023-03-15T11:39:45.384Z,8.00
2023-03-15T11:42:21.027Z,8.32
2023-03-15T11:44:49.075Z,15.52
2023-03-15T11:47:32.056Z,8.75
2023-03-15T11:49:59.617Z,8.48
2023-03-15T11:52:29.077Z,8.98
2023-03-15T11:55:03.878Z,8.05
2023-03-15T11:57:39.196Z,8.95
2023-03-15T12:00:18.384Z,8.10
2023-03-15T12:02:51.276Z,8.70
2023-03-15T12:05:38.762Z,9.60
2023-03-15T12:08:34.580Z,8.82
2023-03-15T12:11:02.309Z,8.30
2023-03-15T12:13:31.180Z,7.65
2023-03-15T12:15:59.245Z,7.95
2023-03-15T12:18:28.674Z,8.93
2023-03-15T12:21:07.147Z,8.65
2023-03-15T12:23:42.682Z,8.80
2023-03-15T12:26:17.698Z,8.55
2023-03-15T12:28:53.461Z,8.23
2023-03-15T12:31:20.915Z,8.43
2023-03-15T12:33:52.882Z,9.65
2023-03-15T12:36:39.629Z,8.98
2023-03-15T12:39:15.697Z,7.50
2023-03-15T12:41:43.992Z,8.75
2023-03-15T12:44:31.742Z,8.20
2023-03-15T12:47:00.097Z,7.03
2023-03-15T12:49:27.166Z,7.32
2023-03-15T12:51:58.092Z,7.35
2023-03-15T12:54:35.634Z,7.43
2023-03-15T12:57:04.216Z,6.95
2023-03-15T12:59:34.349Z,7.45
2023-03-15T13:02:02.564Z,7.13
2023-03-15T13:04:30.617Z,7.15
2023-03-15T13:07:03.802Z,6.85
2023-03-15T13:09:45.627Z,6.90
2023-03-15T13:12:15.853Z,6.15
2023-03-15T13:14:46.503Z,5.65
2023-03-15T13:17:23.554Z,6.80
2023-03-15T13:19:55.312Z,6.28
2023-03-15T13:22:32.547Z,6.47
2023-03-15T13:25:17.961Z,6.53
2023-03-15T13:27:54.254Z,6.70
2023-03-15T13:30:24.115Z,6.28
2023-03-15T13:33:02.888Z,6.28
2023-03-15T13:35:30.005Z,6.15
2023-03-15T13:38:16.040Z,6.88
2023-03-15T13:40:47.339Z,6.10
2023-03-15T13:45:44.792Z,6.30
2023-03-15T13:48:13.384Z,6.57
2023-03-15T13:50:40.617Z,6.20
2023-03-15T13:53:08.017Z,6.60
2023-03-15T13:55:36.372Z,6.93
2023-03-15T13:58:08.187Z,8.02
2023-03-15T14:00:37.073Z,12.18
2023-03-15T14:03:07.223Z,8.50
2023-03-15T14:05:36.755Z,7.88
2023-03-15T14:08:06.000Z,8.25
2023-03-15T14:10:35.053Z,7.80
2023-03-15T14:13:17.798Z,8.27
2023-03-15T14:15:45.363Z,7.78
2023-03-15T14:18:12.461Z,8.52
2023-03-15T14:20:43.672Z,8.05
2023-03-15T14:25:37.893Z,8.95
2023-03-15T14:28:05.960Z,9.40
2023-03-15T14:30:37.451Z,8.95
2023-03-15T14:33:07.643Z,8.88
2023-03-15T14:35:37.784Z,9.43
2023-03-15T14:38:09.461Z,9.23
2023-03-15T14:40:38.555Z,9.00
2023-03-15T14:43:06.997Z,9.52
2023-03-15T14:45:35.092Z,9.05
2023-03-15T14:48:05.567Z,8.48
2023-03-15T14:50:40.775Z,7.63
2023-03-15T14:53:08.775Z,7.90
2023-03-15T14:55:36.861Z,7.43
2023-03-15T14:58:24.302Z,6.80
2023-03-15T15:00:53.459Z,7.88
2023-03-15T15:03:35.707Z,6.50
2023-03-15T15:06:03.334Z,6.63
2023-03-15T15:08:31.842Z,6.30
2023-03-15T15:10:59.114Z,6.10
2023-03-15T15:13:27.570Z,7.53
2023-03-15T15:15:56.608Z,6.15
2023-03-15T15:18:25.365Z,6.30
2023-03-15T15:20:55.520Z,6.05
2023-03-15T15:23:24.458Z,6.43
2023-03-15T15:25:53.053Z,6.15
2023-03-15T15:28:33.294Z,6.30
2023-03-15T15:33:28.662Z,6.18
2023-03-15T15:35:56.865Z,6.50
2023-03-15T15:38:38.772Z,6.80
2023-03-15T15:41:06.719Z,5.20
2023-03-15T15:43:33.959Z,6.47
2023-03-15T15:46:02.019Z,6.13
2023-03-15T15:48:29.255Z,7.68
2023-03-15T15:50:56.355Z,7.85
2023-03-15T15:53:23.774Z,9.10
2023-03-15T15:55:50.897Z,9.10
2023-03-15T15:58:18.074Z,8.25
2023-03-15T16:00:45.408Z,8.18
2023-03-15T16:03:15.628Z,8.18
2023-03-15T16:05:42.903Z,6.93
2023-03-15T16:08:13.113Z,7.80
2023-03-15T16:10:40.192Z,7.20
2023-03-15T16:13:07.268Z,7.07
2023-03-15T16:15:34.767Z,7.07
2023-03-15T16:18:02.463Z,7.68
2023-03-15T16:20:29.746Z,6.80
2023-03-15T16:22:58.473Z,7.13
2023-03-15T16:25:28.555Z,7.22
2023-03-15T16:27:56.321Z,7.82
2023-03-15T16:30:28.576Z,8.80
2023-03-15T16:32:55.721Z,8.23
2023-03-15T16:35:35.008Z,8.45
2023-03-15T16:38:02.582Z,9.00
2023-03-15T16:40:31.376Z,9.32
2023-03-15T16:42:59.013Z,9.25
2023-03-15T16:45:26.205Z,9.30
2023-03-15T16:47:53.403Z,9.18
2023-03-15T16:50:21.007Z,9.30
2023-03-15T16:52:51.782Z,10.20
2023-03-15T16:55:21.480Z,9.90
2023-03-15T16:57:48.575Z,9.68
2023-03-15T17:00:20.300Z,9.85
2023-03-15T17:02:48.730Z,10.00
2023-03-15T17:05:18.933Z,10.30
2023-03-15T17:07:49.836Z,10.13
2023-03-15T17:10:21.184Z,10.23
2023-03-15T17:12:48.612Z,10.10
2023-03-15T17:15:16.559Z,9.95
2023-03-15T17:17:43.678Z,10.10
2023-03-15T17:20:12.750Z,10.10
2023-03-15T17:22:43.327Z,10.73
2023-03-15T17:25:10.686Z,10.48
2023-03-15T17:27:40.188Z,11.10
2023-03-15T17:30:18.129Z,10.80
2023-03-15T17:32:45.547Z,10.65
2023-03-15T17:35:13.873Z,11.07
2023-03-15T17:37:44.933Z,10.48
2023-03-15T17:40:16.730Z,10.52
2023-03-15T17:42:43.877Z,11.90
2023-03-15T17:45:15.279Z,11.52
2023-03-15T17:47:42.571Z,11.10
2023-03-15T17:50:10.154Z,10.48
2023-03-15T17:52:37.643Z,11.27
2023-03-15T17:55:04.878Z,11.35
2023-03-15T17:57:33.851Z,11.60
2023-03-15T18:00:02.184Z,12.93
2023-03-15T18:02:31.489Z,11.65
2023-03-15T18:05:00.408Z,12.60
2023-03-15T18:07:29.611Z,12.43
2023-03-15T18:09:56.844Z,12.13
2023-03-15T18:12:24.656Z,13.82
2023-03-15T18:14:51.806Z,12.50
2023-03-15T18:17:19.181Z,13.25
2023-03-15T18:19:46.268Z,12.57
2023-03-15T18:22:16.622Z,12.68
2023-03-15T18:24:46.042Z,13.47
2023-03-15T18:27:14.105Z,13.60
2023-03-15T18:29:41.346Z,14.85
2023-03-15T18:32:08.440Z,17.33
2023-03-15T18:34:35.556Z,21.42
2023-03-15T18:37:02.978Z,13.30
2023-03-15T18:39:30.100Z,12.38
2023-03-15T18:41:57.207Z,13.20
2023-03-15T18:44:24.431Z,12.32
2023-03-15T18:46:51.556Z,12.85
2023-03-15T18:49:18.709Z,12.52
2023-03-15T18:51:45.906Z,13.07
2023-03-15T18:54:13.415Z,13.55
2023-03-15T18:56:40.511Z,15.13
2023-03-15T18:59:07.815Z,13.73
2023-03-15T19:01:35.082Z,15.35
2023-03-15T19:04:02.275Z,14.55
2023-03-15T19:06:29.474Z,14.52
2023-03-15T19:08:57.379Z,14.40
2023-03-15T19:11:25.138Z,13.60
2023-03-15T19:13:52.298Z,16.60
2023-03-15T19:16:20.718Z,16.15
2023-03-15T19:18:49.385Z,17.27
2023-03-15T19:21:18.695Z,16.90
2023-03-15T19:23:46.245Z,18.17
2023-03-15T19:26:13.795Z,17.88
2023-03-15T19:28:41.268Z,17.08
2023-03-15T19:31:09.172Z,18.77
2023-03-15T19:33:36.473Z,19.48
2023-03-15T19:36:03.828Z,25.27
2023-03-15T19:38:30.965Z,34.90
2023-03-15T19:41:03.563Z,34.20
2023-03-15T19:43:30.741Z,30.50
2023-03-15T19:45:57.856Z,31.17
2023-03-15T19:48:25.004Z,32.75
2023-03-15T19:50:52.161Z,38.55
2023-03-15T19:53:19.233Z,39.33
2023-03-15T19:55:46.303Z,42.88
2023-03-15T19:58:13.513Z,43.53
2023-03-15T20:00:40.763Z,43.15
2023-03-15T20:03:07.897Z,44.28
2023-03-15T20:05:35.823Z,42.35
2023-03-15T20:08:02.911Z,37.10
2023-03-15T20:10:29.993Z,32.40
2023-03-15T20:12:59.132Z,27.60
2023-03-15T20:15:28.914Z,26.15
2023-03-15T20:17:56.421Z,25.27
2023-03-15T20:20:23.924Z,24.65
2023-03-15T20:22:51.309Z,24.83
2023-03-15T20:25:21.138Z,24.40
2023-03-15T20:27:48.703Z,22.85
2023-03-15T20:30:16.726Z,24.75
2023-03-15T20:32:43.979Z,23.48
2023-03-15T20:35:12.054Z,23.70
2023-03-15T20:37:41.509Z,22.42
2023-03-15T20:40:12.816Z,22.63
2023-03-15T20:45:07.402Z,23.95
2023-03-15T20:47:34.632Z,25.20
2023-03-15T20:50:01.942Z,25.42
2023-03-15T20:52:29.078Z,24.77
2023-03-15T20:54:56.377Z,25.50
2023-03-15T20:57:23.505Z,25.00
2023-03-15T20:59:51.286Z,22.90
2023-03-15T21:02:18.546Z,22.75
2023-03-15T21:04:46.169Z,24.02
2023-03-15T21:07:13.274Z,23.17
2023-03-15T21:09:40.502Z,23.13
2023-03-15T21:12:08.171Z,23.52
2023-03-15T21:14:35.593Z,23.08
2023-03-15T21:17:02.874Z,23.27
2023-03-15T21:19:29.976Z,23.27
2023-03-15T21:21:58.926Z,21.25
2023-03-15T21:24:29.065Z,22.27
2023-03-15T21:26:56.220Z,24.30
2023-03-15T21:29:23.378Z,23.52
2023-03-15T21:31:50.555Z,22.98
2023-03-15T21:34:17.759Z,21.67
2023-03-15T21:36:44.904Z,23.17
2023-03-15T21:39:12.074Z,22.73
2023-03-15T21:41:39.182Z,23.63
2023-03-15T21:44:06.381Z,23.25
2023-03-15T21:46:33.947Z,23.08
2023-03-15T21:49:01.748Z,22.58
2023-03-15T21:51:29.488Z,22.50
2023-03-15T21:53:56.946Z,22.42
2023-03-15T21:56:26.219Z,22.73
2023-03-15T21:58:54.475Z,22.10
2023-03-15T22:01:28.139Z,21.48
2023-03-15T22:03:55.328Z,23.67
2023-03-15T22:06:22.873Z,22.30
2023-03-15T22:08:50.603Z,22.83
2023-03-15T22:11:17.946Z,21.50
2023-03-15T22:13:45.075Z,22.40
2023-03-15T22:16:13.483Z,21.13
2023-03-15T22:18:40.810Z,22.77
2023-03-15T22:21:08.009Z,21.35
2023-03-15T22:23:35.312Z,22.15
2023-03-15T22:26:02.462Z,23.27
2023-03-15T22:28:29.544Z,22.73
2023-03-15T22:30:56.778Z,23.67
2023-03-15T22:33:24.406Z,23.40
2023-03-15T22:35:57.717Z,22.88
2023-03-15T22:38:25.382Z,23.20
2023-03-15T22:41:00.003Z,22.92
2023-03-15T22:43:27.171Z,21.92
2023-03-15T22:45:54.310Z,21.67
2023-03-15T22:48:22.870Z,22.10
2023-03-15T22:50:58.805Z,21.92
2023-03-15T22:53:26.047Z,21.27
2023-03-15T22:55:53.225Z,21.45
2023-03-15T22:58:20.421Z,20.95
2023-03-15T23:00:47.693Z,21.02
2023-03-15T23:03:15.314Z,20.65
2023-03-15T23:05:42.833Z,20.60
2023-03-15T23:08:10.185Z,19.60
2023-03-15T23:10:37.309Z,20.33
2023-03-15T23:13:04.734Z,19.42
2023-03-15T23:15:31.915Z,20.55
2023-03-15T23:17:59.182Z,19.92
2023-03-15T23:20:26.866Z,18.08
2023-03-15T23:22:54.303Z,17.52
2023-03-15T23:25:23.036Z,18.83
2023-03-15T23:27:50.116Z,17.77
2023-03-15T23:30:17.668Z,18.50
2023-03-15T23:32:44.815Z,18.05
2023-03-15T23:35:12.820Z,17.58
2023-03-15T23:37:40.384Z,19.98
2023-03-15T23:40:15.784Z,19.67
2023-03-15T23:42:44.067Z,17.45
2023-03-15T23:45:12.263Z,17.48
2023-03-15T23:47:40.102Z,19.35
2023-03-15T23:50:08.171Z,17.58
2023-03-15T23:52:35.785Z,16.38
2023-03-15T23:55:02.886Z,16.20
2023-03-15T23:57:30.045Z,16.25
2023-03-15T23:59:57.151Z,15.63
